KWMC/WMC METAR and TAF weather

Enter ICAO airport designator
Station Type Date Time Source
KWMC METAR 2022/06/27 08:56 UTC NOAA

KWMC 270856Z AUTO 11007KT 10SM CLR 17/00 A3017 RMK AO2 SLP164 T01670000 51006


Station Type Date Time Source
KWMC Decoded METAR 2022/06/27 08:56 UTC NOAA

WINNEMUCCA MUNICIPAL AIRPORT, NV, United States (KWMC) 40-54N 117-48W 1310M
Jun 27, 2022 - 04:56 AM EDT / 2022.06.27 0856 UTC
Wind: from the ESE (110 degrees) at 8 MPH (7 KT):0
Visibility: 10 mile(s):0
Sky conditions: clear
Temperature: 62.1 F (16.7 C)
Dew Point: 32.0 F (0.0 C)
Relative Humidity: 32%
Pressure (altimeter): 30.17 in. Hg (1021 hPa)
Pressure tendency: 0.02 inches (0.6 hPa) higher than three hours ago
ob: KWMC 270856Z AUTO 11007KT 10SM CLR 17/00 A3017 RMK AO2 SLP164 T01670000 51006
cycle: 9

Station Type Date Time Source
KWMC TAF 2022/06/27 06:22 UTC NOAA

TAF KWMC 270520Z 2706/2806 VRB06KT P6SM FEW120
FM272000 24012G22KT P6SM SCT120
FM280500 26010KT P6SM SKC

Example: see airport list